createdAt,value
2016-07-14T00:00:21.211Z,0
2016-07-14T00:01:21.222Z,0
2016-07-14T00:02:21.296Z,0
2016-07-14T00:03:21.228Z,0
2016-07-14T00:04:21.231Z,0
2016-07-14T00:05:21.193Z,0
2016-07-14T00:06:21.258Z,0
2016-07-14T00:07:21.209Z,0
2016-07-14T00:08:21.750Z,0
2016-07-14T00:09:21.215Z,0
2016-07-14T00:10:24.631Z,0
2016-07-14T00:11:21.246Z,0
2016-07-14T00:12:21.323Z,0
2016-07-14T00:13:21.293Z,0
2016-07-14T00:14:21.177Z,0
2016-07-14T00:15:21.212Z,0
2016-07-14T00:16:21.242Z,0
2016-07-14T00:17:21.225Z,0
2016-07-14T00:18:21.239Z,0
2016-07-14T00:19:21.210Z,0
2016-07-14T00:20:21.215Z,0
2016-07-14T00:21:21.471Z,0
2016-07-14T00:22:21.266Z,0
2016-07-14T00:23:21.213Z,0
2016-07-14T00:24:21.257Z,0
2016-07-14T00:25:21.228Z,0
2016-07-14T00:26:21.248Z,0
2016-07-14T00:27:21.267Z,0
2016-07-14T00:28:21.251Z,0
2016-07-14T00:29:21.208Z,0
2016-07-14T00:30:21.241Z,0
2016-07-14T00:31:21.237Z,0
2016-07-14T00:32:21.180Z,0
2016-07-14T00:33:21.222Z,0
2016-07-14T00:34:21.278Z,0
2016-07-14T00:35:21.285Z,0
2016-07-14T00:36:21.308Z,0
2016-07-14T00:37:21.247Z,0
2016-07-14T00:38:21.254Z,0
2016-07-14T00:39:21.227Z,0
2016-07-14T00:40:21.193Z,0
2016-07-14T00:53:21.833Z,0
2016-07-14T00:53:38.918Z,0
2016-07-14T00:54:38.809Z,0
2016-07-14T00:55:38.851Z,0
2016-07-14T00:56:38.841Z,0
2016-07-14T00:57:38.851Z,0
2016-07-14T00:58:38.869Z,0
2016-07-14T00:59:38.820Z,0
2016-07-14T01:00:38.805Z,0
2016-07-14T01:01:38.844Z,0
2016-07-14T01:02:38.835Z,0
2016-07-14T01:03:38.843Z,0
2016-07-14T01:04:38.763Z,0
2016-07-14T01:05:38.787Z,0
2016-07-14T01:06:38.834Z,0
2016-07-14T01:07:43.569Z,0
2016-07-14T01:08:38.846Z,0
2016-07-14T01:09:38.828Z,0
2016-07-14T01:10:38.840Z,0
2016-07-14T01:11:38.846Z,0
2016-07-14T01:12:38.935Z,0
2016-07-14T01:13:38.811Z,0
2016-07-14T01:14:38.871Z,0
2016-07-14T01:15:38.841Z,0
2016-07-14T01:17:16.537Z,0
2016-07-14T01:17:38.904Z,0
2016-07-14T01:18:38.831Z,0
2016-07-14T01:19:38.844Z,0
2016-07-14T01:20:38.840Z,0
2016-07-14T01:21:38.899Z,0
2016-07-14T01:22:38.851Z,0
2016-07-14T01:23:38.872Z,0
2016-07-14T01:24:41.599Z,0
2016-07-14T01:25:38.808Z,0
2016-07-14T01:26:38.853Z,0
2016-07-14T01:27:40.508Z,0
2016-07-14T01:28:38.827Z,0
2016-07-14T01:29:38.870Z,0
2016-07-14T01:30:38.868Z,0
2016-07-14T01:31:38.862Z,0
2016-07-14T01:32:38.873Z,0
2016-07-14T01:33:38.911Z,0
2016-07-14T01:34:51.136Z,0
2016-07-14T01:35:38.952Z,0
2016-07-14T01:36:38.865Z,0
2016-07-14T01:37:38.870Z,0
2016-07-14T01:38:38.851Z,0
2016-07-14T01:39:38.863Z,0
2016-07-14T01:40:38.832Z,0
2016-07-14T01:41:38.852Z,0
2016-07-14T01:42:38.866Z,0
2016-07-14T01:43:38.909Z,0
2016-07-14T01:44:38.819Z,0
2016-07-14T01:45:38.856Z,0
2016-07-14T01:46:38.822Z,0
2016-07-14T01:47:38.869Z,0
2016-07-14T01:48:38.844Z,0
2016-07-14T01:49:38.905Z,0
2016-07-14T01:50:38.874Z,0
2016-07-14T01:51:38.836Z,0
2016-07-14T01:52:38.989Z,0
2016-07-14T01:53:38.920Z,0
2016-07-14T01:54:38.869Z,0
2016-07-14T01:55:38.842Z,0
2016-07-14T01:56:40.857Z,0
2016-07-14T01:57:39.047Z,0
2016-07-14T01:58:38.829Z,0
2016-07-14T01:59:38.819Z,0
2016-07-14T02:00:38.854Z,0
2016-07-14T02:01:38.834Z,0
2016-07-14T02:02:38.887Z,0
2016-07-14T02:03:38.861Z,0
2016-07-14T02:04:38.826Z,0
2016-07-14T02:05:38.865Z,0
2016-07-14T02:06:38.901Z,0
2016-07-14T02:07:38.847Z,0
2016-07-14T02:08:38.860Z,0
2016-07-14T02:09:38.806Z,0
2016-07-14T02:10:38.831Z,0
2016-07-14T02:11:38.855Z,0
2016-07-14T02:12:38.827Z,0
2016-07-14T02:13:38.839Z,0
2016-07-14T02:14:38.866Z,0
2016-07-14T02:15:38.877Z,0
2016-07-14T02:16:38.915Z,0
2016-07-14T02:17:38.881Z,0
2016-07-14T02:18:38.866Z,0
2016-07-14T02:19:38.837Z,0
2016-07-14T02:20:42.735Z,0
2016-07-14T02:21:38.881Z,0
2016-07-14T02:22:38.861Z,0
2016-07-14T02:23:38.845Z,0
2016-07-14T02:24:38.879Z,0
2016-07-14T02:25:38.884Z,0
2016-07-14T02:26:38.856Z,0
2016-07-14T02:27:38.902Z,0
2016-07-14T02:28:38.849Z,0
2016-07-14T02:29:38.872Z,0
2016-07-14T02:30:38.906Z,0
2016-07-14T02:31:38.846Z,0
2016-07-14T02:32:38.910Z,0
2016-07-14T02:33:38.878Z,0
2016-07-14T02:34:38.880Z,0
2016-07-14T02:35:38.884Z,0
2016-07-14T02:36:39.031Z,0
2016-07-14T02:37:38.914Z,0
2016-07-14T02:38:38.886Z,0
2016-07-14T02:39:38.865Z,0
2016-07-14T02:40:38.864Z,0
2016-07-14T02:41:38.911Z,0
2016-07-14T02:42:38.878Z,0
2016-07-14T02:43:38.840Z,0
2016-07-14T02:44:38.884Z,0
2016-07-14T02:45:38.910Z,0
2016-07-14T02:46:38.870Z,0
2016-07-14T02:47:38.888Z,0
2016-07-14T02:48:38.867Z,0
2016-07-14T02:49:38.834Z,0
2016-07-14T02:50:38.843Z,0
2016-07-14T02:51:38.907Z,0
2016-07-14T02:52:38.912Z,0
2016-07-14T02:53:38.850Z,0
2016-07-14T02:54:38.848Z,0
2016-07-14T02:55:38.937Z,0
2016-07-14T02:56:38.948Z,0
2016-07-14T02:57:38.892Z,0
2016-07-14T02:58:38.882Z,0
2016-07-14T02:59:38.874Z,0
2016-07-14T03:00:38.899Z,0
2016-07-14T03:01:38.842Z,0
2016-07-14T03:02:38.903Z,0
2016-07-14T03:03:38.832Z,0
2016-07-14T03:04:38.858Z,0
2016-07-14T03:05:38.872Z,0
2016-07-14T03:06:38.851Z,0
2016-07-14T03:07:38.929Z,0
2016-07-14T03:08:38.819Z,0
2016-07-14T03:09:38.864Z,0
2016-07-14T03:22:39.359Z,0
2016-07-14T03:22:56.384Z,0
2016-07-14T03:23:56.337Z,5
2016-07-14T03:24:56.927Z,5
2016-07-14T03:25:56.352Z,5
2016-07-14T03:26:56.827Z,5
2016-07-14T03:27:56.386Z,5
2016-07-14T03:28:56.330Z,5
2016-07-14T03:29:56.350Z,5
2016-07-14T03:30:56.348Z,5
2016-07-14T03:31:56.427Z,5
2016-07-14T03:32:56.398Z,5
2016-07-14T03:33:56.355Z,5
2016-07-14T03:34:56.355Z,10
2016-07-14T03:35:56.367Z,10
2016-07-14T03:36:56.360Z,10
2016-07-14T03:38:00.840Z,10
2016-07-14T03:38:56.372Z,10
2016-07-14T03:39:56.717Z,10
2016-07-14T03:40:56.358Z,10
2016-07-14T03:41:56.377Z,10
2016-07-14T03:42:56.383Z,10
2016-07-14T03:43:56.367Z,15
2016-07-14T03:44:56.815Z,15
2016-07-14T03:45:56.464Z,15
2016-07-14T03:46:56.742Z,15
2016-07-14T03:47:56.333Z,15
2016-07-14T03:48:56.328Z,15
2016-07-14T03:49:56.380Z,15
2016-07-14T03:50:57.202Z,20
2016-07-14T03:51:56.433Z,20
2016-07-14T03:52:56.325Z,20
2016-07-14T03:53:56.352Z,20
2016-07-14T03:54:56.318Z,25
2016-07-14T03:55:56.401Z,25
2016-07-14T03:56:56.407Z,25
2016-07-14T03:57:57.450Z,25
2016-07-14T03:58:58.092Z,25
2016-07-14T03:59:56.433Z,30
2016-07-14T04:00:56.373Z,30
2016-07-14T04:01:56.351Z,30
2016-07-14T04:02:56.381Z,30
2016-07-14T04:03:56.390Z,30
2016-07-14T04:04:56.423Z,35
2016-07-14T04:05:56.435Z,35
2016-07-14T04:06:56.335Z,35
2016-07-14T04:07:56.468Z,40
2016-07-14T04:08:56.343Z,40
2016-07-14T04:09:56.733Z,40
2016-07-14T04:10:56.363Z,45
2016-07-14T04:11:56.356Z,45
2016-07-14T04:12:56.435Z,45
2016-07-14T04:13:56.341Z,45
2016-07-14T04:14:56.446Z,45
2016-07-14T04:15:56.411Z,50
2016-07-14T04:16:56.695Z,50
2016-07-14T04:17:56.908Z,50
2016-07-14T04:18:56.434Z,50
2016-07-14T04:19:58.677Z,55
2016-07-14T04:20:56.391Z,55
2016-07-14T04:21:56.440Z,55
2016-07-14T04:22:56.368Z,55
2016-07-14T04:23:56.379Z,55
2016-07-14T04:24:58.413Z,55
2016-07-14T04:25:56.395Z,60
2016-07-14T04:26:56.366Z,60
2016-07-14T04:28:06.486Z,60
2016-07-14T04:28:56.475Z,60
2016-07-14T04:29:56.489Z,65
2016-07-14T04:30:56.503Z,65
2016-07-14T04:31:56.487Z,65
2016-07-14T04:32:56.378Z,85
2016-07-14T04:33:57.842Z,120
2016-07-14T04:34:56.427Z,140
2016-07-14T04:35:56.424Z,155
2016-07-14T04:36:56.386Z,160
2016-07-14T04:37:56.375Z,170
2016-07-14T04:38:56.357Z,185
2016-07-14T04:39:56.428Z,190
2016-07-14T04:40:56.357Z,195
2016-07-14T04:41:56.651Z,200
2016-07-14T04:42:56.436Z,205
2016-07-14T04:43:56.351Z,215
2016-07-14T04:44:56.595Z,220
2016-07-14T04:45:56.482Z,230
2016-07-14T04:46:57.031Z,230
2016-07-14T04:47:56.821Z,235
2016-07-14T04:48:57.948Z,245
2016-07-14T04:49:56.445Z,250
2016-07-14T04:50:56.420Z,260
2016-07-14T04:51:56.945Z,260
2016-07-14T04:53:03.125Z,260
2016-07-14T04:53:56.420Z,275
2016-07-14T04:54:56.458Z,275
2016-07-14T04:55:56.408Z,280
2016-07-14T04:57:10.017Z,265
2016-07-14T04:57:56.397Z,225
2016-07-14T04:58:56.917Z,175
2016-07-14T04:59:58.960Z,170
2016-07-14T05:00:56.466Z,210
2016-07-14T05:01:57.561Z,310
2016-07-14T05:02:56.421Z,320
2016-07-14T05:04:14.200Z,325
2016-07-14T05:04:56.398Z,330
2016-07-14T05:05:59.958Z,340
2016-07-14T05:06:59.159Z,355
2016-07-14T05:07:56.901Z,365
2016-07-14T05:08:57.412Z,370
2016-07-14T05:09:56.446Z,370
2016-07-14T05:10:56.398Z,380
2016-07-14T05:11:56.431Z,385
2016-07-14T05:12:56.906Z,370
2016-07-14T05:13:57.154Z,360
2016-07-14T05:14:56.897Z,370
2016-07-14T05:15:56.460Z,395
2016-07-14T05:16:56.448Z,420
2016-07-14T05:17:56.378Z,435
2016-07-14T05:18:56.401Z,430
2016-07-14T05:19:56.921Z,435
2016-07-14T05:20:56.428Z,445
2016-07-14T05:21:56.712Z,445
2016-07-14T05:23:04.865Z,445
2016-07-14T05:23:56.449Z,440
2016-07-14T05:24:56.385Z,440
2016-07-14T05:25:56.375Z,425
2016-07-14T05:26:56.387Z,360
2016-07-14T05:27:56.379Z,285
2016-07-14T05:28:56.487Z,250
2016-07-14T05:29:56.504Z,280
2016-07-14T05:30:57.787Z,295
2016-07-14T05:31:57.196Z,395
2016-07-14T05:32:56.616Z,455
2016-07-14T05:33:56.678Z,400
2016-07-14T05:34:56.685Z,320
2016-07-14T05:35:56.440Z,315
2016-07-14T05:36:56.635Z,370
2016-07-14T05:37:56.509Z,505
2016-07-14T05:38:56.378Z,530
2016-07-14T05:39:56.509Z,565
2016-07-14T05:40:59.700Z,585
2016-07-14T05:42:10.332Z,595
2016-07-14T05:42:56.603Z,595
2016-07-14T05:43:56.772Z,610
2016-07-14T05:44:56.500Z,605
2016-07-14T05:45:56.457Z,630
2016-07-14T05:46:56.431Z,635
2016-07-14T05:48:09.216Z,665
2016-07-14T05:48:56.621Z,685
2016-07-14T05:49:57.764Z,665
2016-07-14T05:50:56.417Z,610
2016-07-14T05:51:56.419Z,575
2016-07-14T05:52:56.795Z,565
2016-07-14T05:53:56.559Z,595
2016-07-14T05:55:00.986Z,535
2016-07-14T05:55:57.107Z,455
2016-07-14T05:56:57.979Z,605
2016-07-14T05:57:56.498Z,405
2016-07-14T05:58:57.158Z,335
2016-07-14T05:59:56.475Z,340
2016-07-14T06:00:56.496Z,350
2016-07-14T06:01:56.669Z,360
2016-07-14T06:02:56.951Z,240
2016-07-14T06:03:56.788Z,170
2016-07-14T06:05:05.719Z,155
2016-07-14T06:05:56.503Z,135
2016-07-14T06:06:57.520Z,120
2016-07-14T06:07:56.472Z,135
2016-07-14T06:08:56.574Z,145
2016-07-14T06:09:56.541Z,135
2016-07-14T06:10:57.300Z,125
2016-07-14T06:11:56.752Z,125
2016-07-14T06:12:56.466Z,135
2016-07-14T06:13:56.892Z,155
2016-07-14T06:14:56.482Z,145
2016-07-14T06:15:59.680Z,130
2016-07-14T06:16:59.524Z,150
2016-07-14T06:17:56.595Z,120
2016-07-14T06:18:56.506Z,120
2016-07-14T06:20:21.578Z,120
2016-07-14T06:20:56.444Z,115
2016-07-14T06:21:56.513Z,115
2016-07-14T06:22:58.397Z,115
2016-07-14T06:23:56.783Z,115
2016-07-14T06:25:05.638Z,120
2016-07-14T06:26:57.059Z,125
2016-07-14T06:27:56.429Z,130
2016-07-14T06:28:56.509Z,130
2016-07-14T06:29:56.453Z,140
2016-07-14T06:30:56.499Z,155
2016-07-14T06:31:57.640Z,180
2016-07-14T06:32:56.407Z,215
2016-07-14T06:33:56.477Z,250
2016-07-14T06:34:56.576Z,250
2016-07-14T06:35:56.688Z,290
2016-07-14T06:36:59.115Z,270
2016-07-14T06:37:56.475Z,275
2016-07-14T06:38:56.489Z,270
2016-07-14T06:39:56.618Z,315
2016-07-14T06:40:59.455Z,335
2016-07-14T06:41:56.528Z,335
2016-07-14T06:42:56.677Z,350
2016-07-14T06:43:56.569Z,350
2016-07-14T06:44:56.760Z,350
2016-07-14T06:45:56.522Z,365
2016-07-14T06:46:59.549Z,370
2016-07-14T06:47:56.568Z,355
2016-07-14T06:48:56.417Z,345
2016-07-14T06:50:07.047Z,335
2016-07-14T06:50:56.483Z,325
2016-07-14T06:51:56.448Z,305
2016-07-14T06:52:58.713Z,325
2016-07-14T06:53:57.005Z,365
2016-07-14T06:54:56.509Z,350
2016-07-14T06:55:56.473Z,335
2016-07-14T06:56:56.427Z,340
2016-07-14T06:57:56.501Z,340
2016-07-14T06:58:56.415Z,345
2016-07-14T06:59:56.655Z,380
2016-07-14T07:00:56.479Z,355
2016-07-14T07:02:05.216Z,320
2016-07-14T07:02:58.582Z,320
2016-07-14T07:03:57.576Z,320
2016-07-14T07:04:56.887Z,360
2016-07-14T07:05:56.730Z,365
2016-07-14T07:06:56.778Z,350
2016-07-14T07:07:56.639Z,310
2016-07-14T07:08:56.745Z,300
2016-07-14T07:10:01.454Z,300
2016-07-14T07:10:56.448Z,285
2016-07-14T07:12:26.811Z,270
2016-07-14T07:12:56.447Z,250
2016-07-14T07:13:56.521Z,240
2016-07-14T07:15:00.831Z,205
2016-07-14T07:16:08.396Z,195
2016-07-14T07:16:56.416Z,195
2016-07-14T07:18:00.683Z,205
2016-07-14T07:19:02.768Z,240
2016-07-14T07:20:03.276Z,275
2016-07-14T07:20:56.650Z,285
2016-07-14T07:22:09.620Z,275
2016-07-14T07:22:56.463Z,305
2016-07-14T07:23:56.457Z,310
2016-07-14T07:24:56.447Z,245
2016-07-14T07:25:57.699Z,240
2016-07-14T07:26:56.478Z,275
2016-07-14T07:27:58.333Z,325
2016-07-14T07:30:16.317Z,345
2016-07-14T07:30:36.803Z,345
2016-07-14T07:31:33.430Z,320
2016-07-14T07:32:33.508Z,320
2016-07-14T07:33:36.310Z,345
2016-07-14T07:35:00.333Z,305
2016-07-14T07:35:33.431Z,295
2016-07-14T07:36:33.460Z,375
2016-07-14T07:37:34.090Z,345
2016-07-14T07:38:33.624Z,215
2016-07-14T07:39:33.480Z,200
2016-07-14T07:40:34.984Z,260
2016-07-14T07:41:35.995Z,310
2016-07-14T07:42:33.415Z,295
2016-07-14T07:45:32.189Z,235
2016-07-14T07:45:51.088Z,255
2016-07-14T07:46:49.295Z,215
2016-07-14T07:47:49.462Z,210
2016-07-14T07:50:31.505Z,240
2016-07-14T07:50:50.741Z,240
2016-07-14T07:51:51.920Z,570
2016-07-14T07:52:57.484Z,790
2016-07-14T07:53:48.604Z,505
2016-07-14T07:54:48.513Z,795
2016-07-14T07:55:48.601Z,1710
2016-07-14T07:56:48.855Z,730
2016-07-14T07:57:49.231Z,780
2016-07-14T07:58:49.884Z,1795
2016-07-14T07:59:53.525Z,1550
2016-07-14T08:00:52.990Z,1860
2016-07-14T08:02:04.371Z,1925
2016-07-14T08:02:56.268Z,425
2016-07-14T08:03:48.551Z,420
2016-07-14T08:05:08.534Z,700
2016-07-14T08:05:48.543Z,835
2016-07-14T08:06:53.413Z,665
2016-07-14T08:07:54.637Z,495
2016-07-14T08:09:08.510Z,700
2016-07-14T08:09:55.685Z,435
2016-07-14T08:11:18.808Z,305
2016-07-14T08:11:48.588Z,285
2016-07-14T08:12:50.322Z,240
2016-07-14T08:13:48.509Z,215
2016-07-14T08:14:52.135Z,215
2016-07-14T08:15:48.560Z,200
2016-07-14T08:16:48.563Z,1680
2016-07-14T08:17:48.628Z,1750
2016-07-14T08:18:54.843Z,1780
2016-07-14T08:19:58.186Z,1545
2016-07-14T08:21:25.314Z,1825
2016-07-14T08:21:52.025Z,1865
2016-07-14T08:22:48.831Z,1990
2016-07-14T08:23:52.936Z,2020
2016-07-14T08:24:48.666Z,1915
2016-07-14T08:25:50.436Z,1865
2016-07-14T08:26:51.778Z,1835
2016-07-14T08:27:48.531Z,255
2016-07-14T08:28:49.535Z,300
2016-07-14T08:29:48.535Z,1760
2016-07-14T08:30:48.529Z,1695
2016-07-14T08:31:53.683Z,1600
2016-07-14T08:32:56.866Z,1680
2016-07-14T08:33:50.825Z,1705
2016-07-14T08:34:48.619Z,1780
2016-07-14T08:35:57.363Z,1875
2016-07-14T08:36:56.379Z,1915
2016-07-14T08:37:48.636Z,415
2016-07-14T08:38:48.581Z,265
2016-07-14T08:40:20.024Z,205
2016-07-14T08:40:48.698Z,215
2016-07-14T08:41:52.870Z,240
2016-07-14T08:42:59.863Z,260
2016-07-14T08:44:41.147Z,305
2016-07-14T08:44:59.220Z,390
2016-07-14T08:45:58.165Z,810
2016-07-14T08:47:13.769Z,425
2016-07-14T08:48:36.597Z,385
2016-07-14T08:48:58.279Z,340
2016-07-14T08:49:58.414Z,345
2016-07-14T08:50:59.444Z,345
2016-07-14T08:51:58.341Z,315
2016-07-14T08:52:58.151Z,280
2016-07-14T08:54:02.790Z,260
2016-07-14T08:54:58.461Z,275
2016-07-14T08:55:58.147Z,280
2016-07-14T08:58:01.221Z,295
2016-07-14T08:58:58.163Z,395
2016-07-14T08:59:58.514Z,480
2016-07-14T09:00:59.065Z,965
2016-07-14T09:01:58.174Z,570
2016-07-14T09:03:01.531Z,580
2016-07-14T09:03:58.155Z,1545
2016-07-14T09:05:20.401Z,570
2016-07-14T09:05:58.284Z,400
2016-07-14T09:06:59.761Z,295
2016-07-14T09:07:58.202Z,265
2016-07-14T09:09:04.446Z,235
2016-07-14T09:10:15.534Z,205
2016-07-14T09:12:01.130Z,185
2016-07-14T09:13:49.656Z,180
2016-07-14T09:14:06.686Z,185
2016-07-14T09:15:11.816Z,215
2016-07-14T09:16:06.658Z,245
2016-07-14T09:17:15.201Z,355
2016-07-14T09:18:08.892Z,470
2016-07-14T09:19:14.072Z,2390
2016-07-14T09:29:27.773Z,315
2016-07-14T09:29:49.260Z,325
2016-07-14T09:42:46.811Z,2365
2016-07-14T09:43:10.534Z,2100
2016-07-14T09:44:04.044Z,1855
2016-07-14T09:48:58.149Z,1900
2016-07-14T09:49:46.033Z,2195
2016-07-14T09:50:39.781Z,1920
2016-07-14T09:52:08.074Z,2315
2016-07-14T09:52:45.039Z,880
2016-07-14T09:54:55.029Z,335
2016-07-14T09:55:41.044Z,310
2016-07-14T09:56:17.590Z,285
2016-07-14T09:57:42.913Z,300
2016-07-14T09:58:19.299Z,310
2016-07-14T09:59:26.427Z,300
2016-07-14T10:00:18.091Z,305
2016-07-14T10:01:19.989Z,325
2016-07-14T10:02:38.452Z,330
2016-07-14T10:03:17.702Z,355
2016-07-14T10:04:17.758Z,385
2016-07-14T10:05:37.520Z,450
2016-07-14T10:07:17.971Z,640
2016-07-14T10:07:55.414Z,2360
2016-07-14T10:08:38.090Z,2335
2016-07-14T10:11:53.649Z,2265
2016-07-14T10:12:24.157Z,2305
2016-07-14T10:13:16.807Z,1935
2016-07-14T10:14:11.514Z,1175
2016-07-14T10:15:11.447Z,2580
2016-07-14T10:16:52.006Z,585
2016-07-14T10:18:44.830Z,570
2016-07-14T10:19:08.010Z,755
2016-07-14T10:20:49.985Z,315
2016-07-14T10:21:20.537Z,270
2016-07-14T10:22:07.178Z,240
2016-07-14T10:23:07.592Z,220
2016-07-14T10:24:10.635Z,230
2016-07-14T10:25:14.808Z,280
2016-07-14T10:26:07.080Z,320
2016-07-14T10:27:36.352Z,320
2016-07-14T10:28:07.171Z,345
2016-07-14T10:29:07.765Z,375
2016-07-14T10:30:07.019Z,435
2016-07-14T10:31:07.416Z,510
2016-07-14T10:32:08.009Z,600
2016-07-14T10:33:07.069Z,645
2016-07-14T10:34:07.406Z,890
2016-07-14T10:35:06.991Z,630
2016-07-14T10:36:07.838Z,535
2016-07-14T10:37:07.130Z,405
2016-07-14T10:38:07.982Z,305
2016-07-14T10:39:07.017Z,225
2016-07-14T10:40:08.005Z,195
2016-07-14T10:41:18.489Z,170
2016-07-14T10:42:10.115Z,135
2016-07-14T10:43:19.032Z,100
2016-07-14T10:44:20.870Z,95
2016-07-14T10:46:33.238Z,95
2016-07-14T10:46:55.357Z,95
2016-07-14T10:47:58.084Z,105
2016-07-14T10:48:55.451Z,105
2016-07-14T10:49:52.653Z,100
2016-07-14T10:50:52.527Z,95
2016-07-14T10:51:56.753Z,85
2016-07-14T10:52:52.478Z,90
2016-07-14T10:54:03.364Z,100
2016-07-14T10:55:18.174Z,120
2016-07-14T10:55:52.498Z,135
2016-07-14T10:56:56.389Z,160
2016-07-14T10:57:52.557Z,175
2016-07-14T10:59:03.770Z,185
2016-07-14T11:00:18.855Z,215
2016-07-14T11:01:27.059Z,280
2016-07-14T11:01:56.842Z,335
2016-07-14T11:02:55.390Z,425
2016-07-14T11:03:56.132Z,470
2016-07-14T11:04:55.558Z,945
2016-07-14T11:05:55.977Z,1415
2016-07-14T11:06:55.231Z,2300
2016-07-14T11:07:55.287Z,2290
2016-07-14T11:08:57.576Z,2305
2016-07-14T11:09:55.561Z,2340
2016-07-14T11:11:59.234Z,1350
2016-07-14T11:12:17.426Z,910
2016-07-14T11:13:36.385Z,505
2016-07-14T11:14:41.499Z,460
2016-07-14T11:15:18.645Z,430
2016-07-14T11:16:58.074Z,395
2016-07-14T11:17:49.627Z,370
2016-07-14T11:19:28.750Z,355
2016-07-14T11:19:46.352Z,350
2016-07-14T11:21:44.054Z,370
2016-07-14T11:22:27.901Z,405
2016-07-14T11:24:02.144Z,1235
2016-07-14T11:24:21.143Z,575
2016-07-14T11:27:25.589Z,1480
2016-07-14T11:27:48.903Z,640
2016-07-14T11:30:08.495Z,835
2016-07-14T11:30:56.936Z,1395
2016-07-14T11:32:07.327Z,1280
2016-07-14T11:32:42.784Z,1255
2016-07-14T11:33:46.606Z,1120
2016-07-14T11:35:04.334Z,1320
2016-07-14T11:35:36.228Z,1300
2016-07-14T11:36:57.834Z,1425
2016-07-14T11:37:36.253Z,1575
2016-07-14T11:38:31.571Z,1745
2016-07-14T11:40:51.549Z,2190
2016-07-14T11:42:31.478Z,2340
2016-07-14T11:43:03.614Z,870
2016-07-14T11:43:48.516Z,825
2016-07-14T11:56:48.810Z,2400
2016-07-14T11:57:43.677Z,330
2016-07-14T11:58:53.438Z,360
2016-07-14T11:59:47.742Z,390
2016-07-14T12:01:05.387Z,430
2016-07-14T12:02:54.372Z,690
2016-07-14T12:03:18.219Z,515
2016-07-14T12:08:16.453Z,2460
2016-07-14T12:08:38.546Z,2525
2016-07-14T12:09:39.665Z,970
2016-07-14T12:11:26.929Z,2365
2016-07-14T12:13:36.070Z,2365
2016-07-14T12:13:54.037Z,470
2016-07-14T12:14:57.768Z,465
2016-07-14T12:15:56.899Z,1600
2016-07-14T12:17:35.231Z,590
2016-07-14T12:17:54.375Z,525
2016-07-14T12:18:57.687Z,450
2016-07-14T12:20:05.749Z,445
2016-07-14T12:22:51.351Z,445
2016-07-14T12:23:23.092Z,515
2016-07-14T12:24:09.417Z,495
2016-07-14T12:25:15.140Z,530
2016-07-14T12:28:05.616Z,1025
2016-07-14T12:28:29.989Z,2705
2016-07-14T12:29:26.476Z,1480
2016-07-14T12:30:33.778Z,825
2016-07-14T12:31:42.748Z,615
2016-07-14T12:32:27.903Z,725
2016-07-14T12:34:56.158Z,2225
2016-07-14T12:35:57.139Z,670
2016-07-14T12:36:57.466Z,2280
2016-07-14T12:37:56.426Z,1125
2016-07-14T12:39:08.730Z,2345
2016-07-14T12:39:57.679Z,2325
2016-07-14T12:40:58.755Z,2290
2016-07-14T12:42:01.118Z,2260
2016-07-14T12:43:01.110Z,2265
2016-07-14T12:44:11.285Z,2315
2016-07-14T12:44:56.053Z,2325
2016-07-14T12:46:14.063Z,490
2016-07-14T12:47:26.941Z,2375
2016-07-14T12:48:38.871Z,2080
2016-07-14T12:49:22.805Z,2385
2016-07-14T12:49:58.375Z,1060
2016-07-14T12:51:06.623Z,640
2016-07-14T12:52:31.468Z,1650
2016-07-14T12:53:00.965Z,835
2016-07-14T12:53:59.078Z,690
2016-07-14T12:54:57.952Z,1355
2016-07-14T12:56:22.145Z,580
2016-07-14T12:57:40.840Z,855
2016-07-14T12:57:58.355Z,935
2016-07-14T12:59:11.561Z,2440
2016-07-14T13:00:01.408Z,725
2016-07-14T13:03:26.880Z,580
2016-07-14T13:03:59.707Z,565
2016-07-14T13:13:45.154Z,1135
2016-07-14T13:15:03.422Z,600
2016-07-14T13:16:29.425Z,1255
2016-07-14T13:17:10.471Z,1965
2016-07-14T13:18:19.737Z,1045
2016-07-14T13:21:55.067Z,645
2016-07-14T13:26:34.129Z,480
2016-07-14T13:26:51.498Z,610
2016-07-14T13:27:51.258Z,2440
2016-07-14T13:28:52.430Z,2295
2016-07-14T13:29:51.588Z,2325
2016-07-14T13:40:41.378Z,1060
2016-07-14T13:41:12.511Z,1725
2016-07-14T13:42:10.654Z,1775
2016-07-14T13:43:10.605Z,1540
2016-07-14T13:46:01.909Z,1605
2016-07-14T13:50:37.467Z,1580
2016-07-14T13:50:59.719Z,915
2016-07-14T13:55:10.443Z,1330
2016-07-14T13:55:28.625Z,1110
2016-07-14T13:56:31.308Z,1555
2016-07-14T13:57:27.799Z,1915
2016-07-14T13:58:28.869Z,1895
2016-07-14T13:59:26.943Z,1905
2016-07-14T14:00:35.710Z,1880
2016-07-14T14:01:29.474Z,1885
2016-07-14T14:03:08.243Z,1840
2016-07-14T14:04:46.363Z,1775
2016-07-14T14:09:52.777Z,820
2016-07-14T14:10:09.818Z,615
2016-07-14T14:16:33.414Z,275
2016-07-14T14:16:50.620Z,275
2016-07-14T14:18:04.838Z,295
2016-07-14T14:19:13.660Z,315
2016-07-14T14:19:55.875Z,325
2016-07-14T14:20:55.753Z,345
2016-07-14T14:21:55.746Z,340
2016-07-14T14:22:56.030Z,350
2016-07-14T14:23:55.757Z,355
2016-07-14T14:26:10.005Z,360
2016-07-14T14:26:28.879Z,365
2016-07-14T14:27:46.413Z,345
2016-07-14T14:28:27.175Z,345
2016-07-14T14:30:19.443Z,305
2016-07-14T14:30:38.484Z,305
2016-07-14T14:31:36.857Z,295
2016-07-14T14:32:36.564Z,310
2016-07-14T14:34:06.503Z,295
2016-07-14T14:36:01.117Z,265
2016-07-14T14:38:25.489Z,305
2016-07-14T14:39:33.003Z,260
2016-07-14T14:40:40.355Z,265
2016-07-14T14:42:06.722Z,280
2016-07-14T14:42:53.283Z,300
2016-07-14T14:43:38.083Z,285
2016-07-14T14:44:38.168Z,250
2016-07-14T14:45:39.811Z,225
2016-07-14T14:47:50.861Z,170
2016-07-14T14:48:21.058Z,170
2016-07-14T14:49:23.741Z,175
2016-07-14T14:50:14.947Z,185
2016-07-14T14:51:21.175Z,210
2016-07-14T14:52:36.669Z,250
2016-07-14T14:53:38.760Z,225
2016-07-14T14:54:15.382Z,180
2016-07-14T14:55:16.857Z,145
2016-07-14T14:56:23.974Z,145
2016-07-14T14:57:14.223Z,145
2016-07-14T14:58:23.849Z,130
2016-07-14T14:59:12.281Z,115
2016-07-14T15:00:12.090Z,100
2016-07-14T15:02:43.458Z,120
2016-07-14T15:03:14.626Z,130
2016-07-14T15:04:25.948Z,145
2016-07-14T15:05:13.546Z,150
2016-07-14T15:06:07.166Z,170
2016-07-14T15:07:17.075Z,195
2016-07-14T15:08:12.311Z,205
2016-07-14T15:09:08.207Z,215
2016-07-14T15:10:12.171Z,225
2016-07-14T15:11:45.509Z,250
2016-07-14T15:12:21.612Z,265
2016-07-14T15:13:10.685Z,285
2016-07-14T15:14:21.323Z,315
2016-07-14T15:15:14.137Z,315
2016-07-14T15:16:08.510Z,305
2016-07-14T15:17:25.948Z,310
2016-07-14T15:18:24.478Z,310
2016-07-14T15:19:56.495Z,295
2016-07-14T15:20:40.831Z,285
2016-07-14T15:22:01.285Z,295
2016-07-14T15:22:26.673Z,295
2016-07-14T15:23:23.773Z,290
2016-07-14T15:24:22.778Z,290
2016-07-14T15:25:43.005Z,300
2016-07-14T15:26:21.248Z,285
2016-07-14T15:27:53.006Z,255
2016-07-14T15:28:24.900Z,260
2016-07-14T15:29:20.617Z,235
2016-07-14T15:30:28.701Z,215
2016-07-14T15:31:21.386Z,195
2016-07-14T15:32:23.679Z,185
2016-07-14T15:33:23.287Z,170
2016-07-14T15:36:18.457Z,200
2016-07-14T15:36:40.956Z,210
2016-07-14T15:37:38.760Z,180
2016-07-14T15:38:40.225Z,165
2016-07-14T15:40:37.850Z,170
2016-07-14T15:40:56.292Z,170
2016-07-14T15:41:55.151Z,185
2016-07-14T15:43:10.007Z,210
2016-07-14T15:44:08.867Z,195
2016-07-14T15:45:43.875Z,185
2016-07-14T15:46:02.290Z,180
2016-07-14T15:48:08.215Z,150
2016-07-14T15:49:15.970Z,170
2016-07-14T15:50:01.970Z,180
2016-07-14T15:51:01.017Z,170
2016-07-14T16:04:05.112Z,165
2016-07-14T16:04:27.344Z,170
2016-07-14T16:05:31.285Z,175
2016-07-14T16:06:30.111Z,190
2016-07-14T16:07:51.985Z,210
2016-07-14T16:08:43.493Z,215
2016-07-14T16:09:29.516Z,215
2016-07-14T16:10:32.503Z,220
2016-07-14T16:11:22.411Z,215
2016-07-14T16:12:22.200Z,220
2016-07-14T16:13:27.372Z,225
2016-07-14T16:16:17.697Z,210
2016-07-14T16:16:42.279Z,210
2016-07-14T16:17:43.836Z,215
2016-07-14T16:19:07.443Z,215
2016-07-14T16:20:46.227Z,205
2016-07-14T16:21:59.107Z,205
2016-07-14T16:23:49.224Z,205
2016-07-14T16:24:51.173Z,205
2016-07-14T16:27:23.911Z,200